Time;durP1;ratioP1;P1;durP2;ratioP2;P2;SDS_P1;SDS_P2;PMS_P1;PMS_P2;Temp;Humidity;BMP_temperature;BMP_pressure;BME280_temperature;BME280_humidity;BME280_pressure;Samples;Min_cycle;Max_cycle;Signal;HPM_P1;HPM_P2
2023/01/05 00:01:11;;;;;;;;;0.00;0.00;;;;;14.70;74.54;101895.72;5031188;28;46720;-67
2023/01/05 00:03:37;;;;;;;;;0.00;0.00;;;;;14.74;74.54;101903.00;5048949;28;45196;-67
2023/01/05 00:06:05;;;;;;;;;0.00;0.00;;;;;14.67;73.99;101890.25;5038913;28;45274;-66
2023/01/05 00:08:31;;;;;;;;;2.00;1.00;;;;;14.68;74.11;101897.47;5049472;28;46107;-68
2023/01/05 00:24:41;;;;;;;;;0.00;0.00;;;;;14.31;73.50;101847.97;5046888;28;45042;-65
2023/01/05 00:27:07;;;;;;;;;3.33;1.00;;;;;14.67;74.02;101922.53;5049601;28;45348;-67
2023/01/05 00:29:32;;;;;;;;;0.00;0.00;;;;;14.68;73.99;101912.69;5051147;28;45028;-69
2023/01/05 00:31:57;;;;;;;;;0.00;0.00;;;;;14.61;73.97;101908.00;5026848;28;46551;-68
2023/01/05 00:34:23;;;;;;;;;0.33;0.00;;;;;14.59;73.70;101902.56;5041659;28;45458;-68
2023/01/05 00:36:48;;;;;;;;;0.00;0.00;;;;;14.66;74.00;101917.13;5046112;28;45377;-66
2023/01/05 00:39:14;;;;;;;;;0.00;0.00;;;;;14.65;73.48;101918.91;5050827;28;45070;-65
2023/01/05 00:41:39;;;;;;;;;0.00;0.00;;;;;14.63;73.59;101906.25;5035596;28;45194;-66
2023/01/05 00:44:04;;;;;;;;;0.00;0.00;;;;;14.65;73.28;101917.97;5039393;28;45236;-65
2023/01/05 00:46:30;;;;;;;;;0.00;0.00;;;;;14.67;73.56;101922.53;5050064;28;45155;-65
2023/01/05 00:48:55;;;;;;;;;1.00;0.00;;;;;14.65;73.81;101908.16;5050799;28;45288;-66
2023/01/05 00:51:20;;;;;;;;;0.00;0.00;;;;;14.66;73.01;101926.09;5039390;28;45076;-68
2023/01/05 00:53:47;;;;;;;;;0.00;0.00;;;;;14.62;73.17;101915.19;5051430;28;57012;-67
2023/01/05 00:56:13;;;;;;;;;1.00;0.00;;;;;14.67;73.03;101932.41;5038686;28;45025;-66
2023/01/05 00:58:38;;;;;;;;;0.00;0.00;;;;;14.49;73.00;101916.59;5044337;28;45464;-66
2023/01/05 01:01:11;;;;;;;;;0.33;0.33;;;;;14.53;72.97;101931.94;5043025;28;47269;-65
2023/01/05 01:03:37;;;;;;;;;1.00;0.00;;;;;14.39;72.46;101899.28;5024473;28;45074;-65
2023/01/05 01:06:03;;;;;;;;;0.00;0.00;;;;;14.55;72.64;101925.75;5033218;28;45228;-65
2023/01/05 01:08:28;;;;;;;;;0.67;0.00;;;;;14.53;72.22;101930.16;5048937;28;45282;-65
2023/01/05 01:10:53;;;;;;;;;0.00;0.00;;;;;14.53;72.42;101929.25;5049442;28;45801;-65
2023/01/05 01:13:24;;;;;;;;;0.00;0.00;;;;;14.38;71.92;101919.88;5047553;28;53177;-65
2023/01/05 01:15:50;;;;;;;;;0.00;0.00;;;;;14.42;72.42;101917.28;5017902;28;45402;-64
2023/01/05 01:18:15;;;;;;;;;0.00;0.00;;;;;14.42;71.71;101931.66;5049506;28;45009;-65
2023/01/05 01:20:40;;;;;;;;;2.00;0.00;;;;;14.40;71.89;101927.06;5046905;28;46137;-64
2023/01/05 01:23:06;;;;;;;;;0.00;0.00;;;;;14.38;71.61;101922.56;5047759;28;44942;-65
2023/01/05 01:25:32;;;;;;;;;1.00;0.00;;;;;14.36;71.67;101924.28;5049573;28;44974;-65
2023/01/05 01:27:57;;;;;;;;;0.00;0.00;;;;;14.28;71.65;101916.88;5042351;28;44931;-64
2023/01/05 01:30:23;;;;;;;;;3.00;0.00;;;;;13.96;71.76;101860.38;5048613;28;45823;-66
2023/01/05 01:32:48;;;;;;;;;0.00;0.00;;;;;14.30;71.83;101923.19;5035871;28;44955;-65
2023/01/05 01:35:14;;;;;;;;;0.67;0.00;;;;;14.28;71.79;101917.78;5047066;28;45065;-63
2023/01/05 01:37:39;;;;;;;;;0.33;0.00;;;;;14.24;72.05;101907.81;5036937;28;44982;-65
2023/01/05 01:40:06;;;;;;;;;0.00;0.00;;;;;14.29;71.96;101930.38;5047371;28;46175;-65
2023/01/05 01:42:32;;;;;;;;;2.33;0.33;;;;;14.20;72.55;101913.94;5043401;28;45230;-69
2023/01/05 01:44:59;;;;;;;;;1.00;1.00;;;;;14.23;72.52;101913.13;5040103;28;45254;-66
2023/01/05 01:47:29;;;;;;;;;0.00;0.00;;;;;14.34;72.41;101923.34;5045791;28;45194;-65
2023/01/05 01:49:58;;;;;;;;;0.00;0.00;;;;;14.25;72.34;101920.38;5051443;28;46059;-64
2023/01/05 01:52:26;;;;;;;;;2.00;0.00;;;;;14.22;72.62;101903.25;5051140;28;45114;-65
2023/01/05 01:54:52;;;;;;;;;0.00;0.00;;;;;14.38;72.64;101929.72;5046130;28;44971;-66
2023/01/05 01:57:17;;;;;;;;;0.00;0.00;;;;;14.47;72.52;101943.44;5042511;28;45074;-65
2023/01/05 01:59:43;;;;;;;;;0.00;0.00;;;;;14.40;71.97;101927.06;5050748;28;46047;-65
2023/01/05 02:02:11;;;;;;;;;0.00;0.00;;;;;14.46;72.08;101940.72;5050611;28;45672;-66
2023/01/05 02:04:36;;;;;;;;;1.67;0.00;;;;;14.46;71.76;101938.03;5034853;28;45078;-66
2023/01/05 02:07:02;;;;;;;;;1.67;0.00;;;;;14.43;71.36;101936.13;5039668;28;44946;-66
2023/01/05 02:09:28;;;;;;;;;1.33;0.00;;;;;14.26;71.58;101907.84;5046664;28;45750;-67
2023/01/05 02:12:19;;;;;;;;;0.00;0.00;;;;;14.26;71.35;101921.31;5044411;28;45195;-69
2023/01/05 02:15:06;;;;;;;;;1.00;1.00;;;;;14.36;71.28;101936.84;5040124;28;45210;-64
2023/01/05 02:17:49;;;;;;;;;0.00;0.00;;;;;14.34;71.24;101939.47;5047286;28;46242;-66
2023/01/05 02:20:33;;;;;;;;;1.00;0.00;;;;;14.30;70.33;101942.91;5041702;28;45686;-66
2023/01/05 02:23:10;;;;;;;;;0.67;0.67;;;;;14.28;70.46;101941.06;5048746;28;44949;-65
2023/01/05 02:25:51;;;;;;;;;1.00;0.00;;;;;14.24;70.31;101945.44;5040380;28;45077;-68
2023/01/05 02:28:45;;;;;;;;;0.00;0.00;;;;;14.19;70.26;101945.28;5045802;28;45274;-67
2023/01/05 02:31:30;;;;;;;;;0.00;0.00;;;;;14.18;69.91;101951.53;5019593;28;45170;-67
2023/01/05 02:34:16;;;;;;;;;1.00;0.33;;;;;14.16;69.82;101955.94;5051707;28;45354;-65
2023/01/05 02:36:52;;;;;;;;;0.00;0.00;;;;;14.14;70.16;101960.38;5049355;28;45315;-65
2023/01/05 02:39:24;;;;;;;;;1.00;0.00;;;;;14.18;69.91;101962.28;5051681;28;45106;-68
2023/01/05 02:41:59;;;;;;;;;3.00;0.00;;;;;14.24;70.05;101964.25;5037527;28;45741;-64
2023/01/05 02:44:29;;;;;;;;;1.33;0.00;;;;;14.28;69.60;101959.88;5049779;28;45135;-65
2023/01/05 02:47:03;;;;;;;;;0.00;0.00;;;;;14.19;69.49;101937.22;5051945;28;45158;-65
2023/01/05 02:49:33;;;;;;;;;0.00;0.00;;;;;14.21;69.47;101936.38;5052990;28;45026;-64
2023/01/05 02:52:01;;;;;;;;;2.00;1.00;;;;;14.16;68.89;101934.44;5046182;28;45934;-66
2023/01/05 02:54:38;;;;;;;;;4.33;0.00;;;;;14.13;69.63;101934.34;5046275;28;44998;-66
2023/01/05 02:57:11;;;;;;;;;2.00;0.67;;;;;14.20;68.98;101927.38;5051718;28;44895;-64
2023/01/05 02:59:50;;;;;;;;;2.00;0.67;;;;;14.16;69.40;101931.75;5046163;28;45007;-66
2023/01/05 03:02:23;;;;;;;;;2.00;2.00;;;;;14.18;69.22;101931.81;5043488;28;45792;-64
2023/01/05 03:05:08;;;;;;;;;1.67;0.00;;;;;14.19;69.31;101939.03;5051177;28;45064;-68
2023/01/05 03:07:39;;;;;;;;;2.00;0.00;;;;;14.23;69.62;101940.91;5047611;28;44973;-67
2023/01/05 03:15:44;;;;;;;;;2.67;1.33;;;;;14.23;69.76;101935.53;5044370;28;45379;-67
2023/01/05 03:18:14;;;;;;;;;0.00;0.00;;;;;14.24;69.88;101942.75;5051530;28;45022;-67
2023/01/05 03:20:43;;;;;;;;;0.00;0.00;;;;;14.27;69.63;101942.84;5038617;28;45356;-65
2023/01/05 03:37:13;;;;;;;;;1.33;1.00;;;;;14.25;68.95;101949.94;5044669;28;45120;-64
2023/01/05 03:39:43;;;;;;;;;1.00;1.00;;;;;14.30;68.85;101948.28;5032323;28;45067;-64
2023/01/05 03:42:10;;;;;;;;;1.00;1.00;;;;;14.32;68.68;101948.34;5051245;28;45152;-65
2023/01/05 03:44:38;;;;;;;;;1.67;1.67;;;;;14.32;68.83;101951.03;5050464;28;48199;-64
2023/01/05 03:47:03;;;;;;;;;1.00;1.00;;;;;14.30;68.39;101967.13;5044388;28;45164;-66
2023/01/05 03:49:29;;;;;;;;;0.00;0.00;;;;;14.23;68.48;101953.47;5032784;28;45270;-65
2023/01/05 03:51:54;;;;;;;;;3.33;1.00;;;;;14.24;68.66;101950.81;5048333;28;45303;-66
2023/01/05 03:54:20;;;;;;;;;2.00;1.00;;;;;14.27;68.64;101967.03;5049849;28;46555;-66
2023/01/05 03:56:45;;;;;;;;;0.00;0.00;;;;;13.75;68.46;101868.69;5049425;28;45342;-66
2023/01/05 03:59:10;;;;;;;;;5.00;0.00;;;;;14.29;68.60;101965.31;5050788;28;45159;-66
2023/01/05 04:01:36;;;;;;;;;2.33;0.33;;;;;14.27;68.46;101963.41;5049422;28;45375;-65
2023/01/05 04:04:01;;;;;;;;;1.33;0.00;;;;;14.26;68.68;101959.84;5048232;28;46517;-65
2023/01/05 04:06:27;;;;;;;;;7.00;1.00;;;;;14.28;68.38;101950.03;5018997;28;45402;-67
2023/01/05 04:08:52;;;;;;;;;0.00;0.00;;;;;14.29;68.27;101951.88;5049724;28;45252;-65
2023/01/05 04:11:20;;;;;;;;;1.67;0.00;;;;;14.34;68.67;101965.47;5049306;28;45284;-66
2023/01/05 04:13:45;;;;;;;;;4.00;3.00;;;;;14.32;68.64;101954.66;5039462;28;45574;-68
2023/01/05 04:16:11;;;;;;;;;4.33;2.00;;;;;14.34;68.67;101957.38;5050187;28;45222;-65
2023/01/05 04:18:36;;;;;;;;;1.00;1.00;;;;;14.36;68.35;101956.56;5049108;28;45643;-67
2023/01/05 04:21:03;;;;;;;;;1.00;1.00;;;;;14.29;68.62;101942.91;5049084;28;45416;-67
2023/01/05 04:23:29;;;;;;;;;1.00;1.00;;;;;14.32;68.63;101956.41;5038026;28;45813;-65
2023/01/05 04:25:54;;;;;;;;;1.67;0.33;;;;;14.30;68.84;101960.84;5041855;28;45095;-65
2023/01/05 04:28:19;;;;;;;;;2.00;0.00;;;;;14.29;69.02;101945.59;5035810;28;45288;-69
2023/01/05 04:30:49;;;;;;;;;0.00;0.00;;;;;14.30;68.88;101947.41;5048131;28;45066;-68
2023/01/05 04:33:15;;;;;;;;;1.00;0.00;;;;;14.36;68.88;101952.97;5042615;28;45946;-64
2023/01/05 04:35:40;;;;;;;;;0.00;0.00;;;;;14.28;69.28;101949.13;5031098;28;45312;-65
2023/01/05 04:38:05;;;;;;;;;2.00;1.00;;;;;14.33;69.21;101959.16;5049401;28;45032;-65
2023/01/05 04:40:31;;;;;;;;;0.00;0.00;;;;;14.34;69.64;101957.38;5041076;28;45019;-67
2023/01/05 04:42:56;;;;;;;;;2.67;1.00;;;;;14.35;69.34;101956.50;5041916;28;50722;-65
2023/01/05 04:45:22;;;;;;;;;2.67;2.00;;;;;14.06;69.54;101902.78;5036528;28;45548;-65
2023/01/05 04:47:47;;;;;;;;;2.00;0.00;;;;;14.39;69.37;101966.50;5031783;28;45059;-65
2023/01/05 04:50:12;;;;;;;;;0.00;0.00;;;;;14.40;69.46;101960.25;5050008;28;45452;-63
2023/01/05 04:52:38;;;;;;;;;3.00;0.00;;;;;14.40;69.33;101960.25;5039323;28;48148;-66
2023/01/05 04:55:05;;;;;;;;;0.00;0.00;;;;;14.40;69.10;101957.56;5047905;28;45110;-66
2023/01/05 04:57:30;;;;;;;;;2.00;0.00;;;;;14.27;69.38;101936.53;5042517;28;44990;-64
2023/01/05 04:59:56;;;;;;;;;0.00;0.00;;;;;14.23;69.75;101945.41;5030923;28;45249;-65
2023/01/05 05:02:21;;;;;;;;;1.33;0.00;;;;;14.25;69.65;101943.66;5051716;28;45319;-66
2023/01/05 05:04:47;;;;;;;;;0.00;0.00;;;;;14.26;69.66;101943.72;5051007;28;44977;-64
2023/01/05 05:07:12;;;;;;;;;0.00;0.00;;;;;14.24;69.84;101940.06;5052038;28;45505;-66
2023/01/05 05:09:37;;;;;;;;;1.00;0.00;;;;;14.35;69.99;101952.06;5052046;28;45097;-65
2023/01/05 05:12:03;;;;;;;;;2.67;0.00;;;;;14.38;69.63;101949.44;5025955;28;46266;-66
2023/01/05 05:14:29;;;;;;;;;1.33;0.00;;;;;14.38;69.77;101952.13;5043033;28;45168;-68
2023/01/05 05:16:54;;;;;;;;;1.00;1.00;;;;;14.37;69.74;101944.03;5047689;28;45430;-66
2023/01/05 05:19:19;;;;;;;;;0.00;0.00;;;;;14.39;69.92;101947.69;5051567;28;47192;-66
2023/01/05 05:21:45;;;;;;;;;2.33;2.00;;;;;14.34;69.85;101936.78;5051606;28;45399;-65
2023/01/05 05:24:11;;;;;;;;;1.00;1.00;;;;;14.33;70.20;101937.63;5044244;28;45197;-65
2023/01/05 05:26:36;;;;;;;;;0.00;0.00;;;;;14.42;70.34;101952.22;5044091;28;44937;-67
2023/01/05 05:29:02;;;;;;;;;2.67;0.67;;;;;14.44;69.88;101959.47;5046598;28;45272;-63
2023/01/05 05:31:27;;;;;;;;;0.00;0.00;;;;;14.47;69.99;101955.97;5025555;28;46154;-71
2023/01/05 05:33:53;;;;;;;;;0.00;0.00;;;;;14.26;70.03;101916.81;5044806;28;45120;-68
2023/01/05 05:36:18;;;;;;;;;1.00;1.00;;;;;14.43;70.15;101949.59;5043353;28;45010;-67
2023/01/05 05:38:43;;;;;;;;;2.00;0.67;;;;;14.26;70.30;101927.56;5051358;28;44991;-66
2023/01/05 05:41:09;;;;;;;;;2.00;0.00;;;;;14.40;70.57;101953.97;5042991;28;46254;-65
2023/01/05 05:43:35;;;;;;;;;0.33;0.00;;;;;14.40;70.63;101960.25;5035856;28;44853;-65
2023/01/05 05:46:01;;;;;;;;;0.00;0.00;;;;;14.36;70.47;101959.25;5045783;28;45101;-65
2023/01/05 05:48:26;;;;;;;;;0.00;0.00;;;;;14.35;71.08;101956.50;5049078;28;45151;-67
2023/01/05 05:50:52;;;;;;;;;1.00;0.00;;;;;14.17;71.13;101928.22;5051005;28;45345;-65
2023/01/05 05:53:17;;;;;;;;;0.33;0.33;;;;;14.36;71.04;101958.34;5045337;28;45285;-66
2023/01/05 05:55:46;;;;;;;;;0.00;0.00;;;;;14.31;70.81;101962.66;5050085;28;45120;-67
2023/01/05 05:58:12;;;;;;;;;1.00;1.00;;;;;13.92;71.56;101901.44;5053819;28;45199;-65
2023/01/05 06:00:37;;;;;;;;;0.00;0.00;;;;;14.32;71.11;101970.78;5046509;28;45052;-64
2023/01/05 06:03:03;;;;;;;;;0.00;0.00;;;;;14.29;71.31;101965.31;5044686;28;45522;-66
2023/01/05 06:05:28;;;;;;;;;0.67;0.00;;;;;14.32;71.27;101976.16;5052041;28;45156;-67
2023/01/05 06:07:53;;;;;;;;;3.33;1.00;;;;;14.32;71.16;101969.84;5051609;28;45124;-66
2023/01/05 06:10:19;;;;;;;;;1.00;1.00;;;;;14.37;71.47;101976.31;5042685;28;45703;-66
2023/01/05 06:12:44;;;;;;;;;2.00;0.33;;;;;14.35;71.13;101978.94;5051761;28;45146;-65
2023/01/05 06:15:10;;;;;;;;;0.00;0.00;;;;;14.25;71.17;101983.97;5047004;28;45068;-65
2023/01/05 06:17:35;;;;;;;;;0.33;0.00;;;;;14.23;71.56;101980.34;5041460;28;45325;-65
2023/01/05 06:20:01;;;;;;;;;1.67;0.00;;;;;14.10;71.70;101974.56;5037038;28;45541;-63
2023/01/05 06:22:26;;;;;;;;;0.00;0.00;;;;;14.17;72.00;101994.47;5036606;28;45430;-64
2023/01/05 06:24:51;;;;;;;;;0.00;0.00;;;;;14.15;72.02;101997.13;5042220;28;57386;-65
2023/01/05 06:27:16;;;;;;;;;2.67;0.67;;;;;14.17;72.39;101999.84;5044985;28;45683;-64
2023/01/05 06:29:42;;;;;;;;;1.00;0.67;;;;;14.11;71.99;101992.53;5045753;28;46334;-65
2023/01/05 06:32:07;;;;;;;;;0.67;0.00;;;;;14.13;71.99;102004.22;5038261;28;44911;-68
2023/01/05 06:34:32;;;;;;;;;1.00;1.00;;;;;14.13;72.57;102006.00;5049293;28;45208;-67
2023/01/05 06:36:58;;;;;;;;;1.00;0.00;;;;;14.03;72.25;101985.09;5043675;28;45183;-68
2023/01/05 06:39:23;;;;;;;;;1.00;1.00;;;;;14.18;72.09;102007.06;5051723;28;56993;-65
2023/01/05 06:41:48;;;;;;;;;0.00;0.00;;;;;13.91;72.20;101956.03;5049138;28;45105;-70
2023/01/05 06:44:14;;;;;;;;;0.33;0.33;;;;;14.12;72.46;101993.44;5032512;28;45055;-67
2023/01/05 06:46:39;;;;;;;;;1.00;1.00;;;;;14.19;72.24;101999.06;5037065;28;45299;-67
2023/01/05 06:49:05;;;;;;;;;1.00;0.00;;;;;14.05;72.16;101983.34;5035023;28;45087;-67
2023/01/05 06:51:30;;;;;;;;;0.00;0.00;;;;;14.13;72.87;102009.59;5048731;28;44937;-66
2023/01/05 06:53:56;;;;;;;;;2.00;1.00;;;;;14.15;72.81;102012.34;5042900;28;45196;-66
2023/01/05 06:56:21;;;;;;;;;0.00;0.00;;;;;14.13;72.58;102008.69;5034264;28;45262;-64
2023/01/05 06:58:46;;;;;;;;;1.00;1.00;;;;;14.14;72.55;102014.13;5026738;28;46074;-66
2023/01/05 07:01:12;;;;;;;;;2.33;2.00;;;;;14.05;72.77;101988.72;5016601;28;45414;-67
2023/01/05 07:03:37;;;;;;;;;0.00;0.00;;;;;13.99;72.93;101981.38;5032193;28;45746;-66
2023/01/05 07:06:03;;;;;;;;;2.00;0.00;;;;;14.08;72.87;101999.59;5017791;28;46143;-65
2023/01/05 07:08:28;;;;;;;;;0.00;0.00;;;;;14.04;73.11;101994.94;5034858;28;46217;-64
2023/01/05 07:10:54;;;;;;;;;6.67;3.33;;;;;13.91;73.17;101977.50;5032486;28;45395;-70
2023/01/05 07:13:19;;;;;;;;;4.00;1.00;;;;;14.06;73.29;102004.00;5036018;28;45574;-67
2023/01/05 07:15:44;;;;;;;;;0.00;0.00;;;;;14.07;73.32;102016.56;5038034;28;45974;-67
2023/01/05 07:18:10;;;;;;;;;0.00;0.00;;;;;14.10;73.35;102019.34;5036983;28;45711;-64
2023/01/05 07:20:37;;;;;;;;;1.00;1.00;;;;;14.03;73.89;102010.19;5030160;28;45293;-67
2023/01/05 07:23:03;;;;;;;;;0.00;0.00;;;;;14.09;73.31;102018.44;5048823;28;45143;-66
2023/01/05 07:25:30;;;;;;;;;2.67;1.00;;;;;13.95;73.86;101990.19;5039042;28;45570;-68
2023/01/05 07:27:56;;;;;;;;;1.67;1.00;;;;;14.09;73.90;102014.81;5037024;28;45480;-68
2023/01/05 07:30:23;;;;;;;;;0.00;0.00;;;;;14.09;73.53;102018.44;5035494;28;45454;-69
2023/01/05 07:32:48;;;;;;;;;0.33;0.33;;;;;14.06;74.06;102012.97;5025926;28;45627;-67
2023/01/05 07:35:13;;;;;;;;;0.67;0.67;;;;;14.08;73.87;102015.72;5024931;28;45556;-69
2023/01/05 07:37:39;;;;;;;;;3.33;2.00;;;;;14.05;73.98;102002.16;5022050;28;46658;-66
2023/01/05 07:40:05;;;;;;;;;0.00;0.00;;;;;14.16;73.74;102030.31;5025415;28;45511;-67
2023/01/05 07:42:30;;;;;;;;;0.67;0.67;;;;;14.09;74.05;102013.06;5034501;28;45395;-65
2023/01/05 07:44:56;;;;;;;;;1.00;1.00;;;;;14.00;73.76;101993.94;5015605;28;45479;-68
2023/01/05 07:47:21;;;;;;;;;0.00;0.00;;;;;14.16;74.04;102025.84;5008918;28;46685;-67
2023/01/05 07:49:47;;;;;;;;;0.00;0.00;;;;;14.23;74.12;102028.72;5029510;28;45912;-66
2023/01/05 07:52:12;;;;;;;;;2.67;1.00;;;;;14.21;74.16;102030.47;5035784;28;45592;-66
2023/01/05 07:54:37;;;;;;;;;2.00;0.67;;;;;14.05;74.05;102000.38;5033913;28;45589;-66
2023/01/05 07:57:03;;;;;;;;;1.33;1.33;;;;;14.22;74.13;102027.78;5024638;28;49275;-67
2023/01/05 07:59:28;;;;;;;;;1.00;1.00;;;;;14.16;74.15;102028.50;5034984;28;45451;-66
2023/01/05 08:01:53;;;;;;;;;1.67;0.67;;;;;14.25;74.25;102018.94;5016788;28;45724;-66
2023/01/05 08:04:19;;;;;;;;;3.33;3.33;;;;;14.28;73.97;102019.03;5030072;28;45406;-66
2023/01/05 08:06:44;;;;;;;;;1.00;1.00;;;;;14.36;74.03;102026.47;5034046;28;45332;-68
2023/01/05 08:11:57;;;;;;;;;1.00;1.00;;;;;14.33;73.91;102020.97;5034761;28;45470;-67
2023/01/05 08:14:22;;;;;;;;;1.00;1.00;;;;;14.45;73.70;102031.22;5034507;28;45415;-68
2023/01/05 08:16:48;;;;;;;;;4.33;2.00;;;;;14.45;73.73;102031.22;5034372;28;45711;-69
2023/01/05 08:19:13;;;;;;;;;3.67;1.33;;;;;14.42;73.58;102028.44;5033544;28;45404;-65
2023/01/05 08:21:38;;;;;;;;;5.00;3.33;;;;;14.51;73.78;102036.78;5019679;28;45595;-63
2023/01/05 08:24:07;;;;;;;;;6.00;4.67;;;;;14.43;73.47;102019.50;5034306;28;45368;-64
2023/01/05 08:26:33;;;;;;;;;3.00;3.00;;;;;14.47;73.54;102015.13;5025147;28;45433;-62
2023/01/05 08:28:58;;;;;;;;;4.67;2.33;;;;;14.62;73.54;102042.53;5033528;28;45458;-62
2023/01/05 08:31:26;;;;;;;;;3.67;3.33;;;;;14.64;73.40;102037.19;5034296;28;45641;-62
2023/01/05 08:33:58;;;;;;;;;3.33;2.67;;;;;14.69;73.11;102039.16;5029484;28;45593;-62
2023/01/05 08:36:23;;;;;;;;;4.33;3.00;;;;;14.67;72.90;102031.91;5015921;28;46981;-63
2023/01/05 08:38:53;;;;;;;;;2.00;2.00;;;;;14.66;72.54;102024.72;5033330;28;45481;-63
2023/01/05 08:41:24;;;;;;;;;5.67;4.00;;;;;14.78;72.69;102035.81;5025184;28;45574;-62
2023/01/05 08:43:58;;;;;;;;;3.33;2.00;;;;;14.83;72.60;102041.34;5023180;28;45449;-64
2023/01/05 08:46:26;;;;;;;;;5.33;5.33;;;;;14.81;72.47;102037.69;5020198;28;45469;-63
2023/01/05 08:48:55;;;;;;;;;2.67;2.00;;;;;14.88;72.02;102043.31;5022605;28;45524;-64
2023/01/05 08:51:21;;;;;;;;;4.00;4.00;;;;;14.89;72.18;102049.59;5027229;28;45556;-64
2023/01/05 08:53:47;;;;;;;;;3.33;2.33;;;;;14.89;72.01;102042.44;5026191;28;45444;-61
2023/01/05 08:56:13;;;;;;;;;7.00;4.00;;;;;14.91;72.09;102043.41;5031463;28;45380;-62
2023/01/05 08:58:39;;;;;;;;;2.67;1.00;;;;;14.91;71.91;102031.72;5029790;28;45482;-62
2023/01/05 09:01:13;;;;;;;;;3.00;2.67;;;;;14.90;71.71;102029.91;5031053;28;45516;-63
2023/01/05 09:03:38;;;;;;;;;0.00;0.00;;;;;14.89;71.21;102028.06;5025862;28;45547;-68
2023/01/05 09:06:06;;;;;;;;;3.33;2.33;;;;;14.93;71.34;102032.66;5007495;28;48568;-62
2023/01/05 09:08:32;;;;;;;;;0.67;0.67;;;;;14.98;71.31;102028.34;5019530;28;45434;-64
2023/01/05 09:11:17;;;;;;;;;1.33;1.33;;;;;15.04;70.96;102039.28;5023640;28;45490;-63
2023/01/05 09:13:48;;;;;;;;;0.33;0.33;;;;;15.03;70.73;102033.84;5014691;28;45748;-64
2023/01/05 09:16:17;;;;;;;;;3.00;3.00;;;;;15.06;71.00;102033.94;5025301;28;45546;-64
2023/01/05 09:18:43;;;;;;;;;0.00;0.00;;;;;15.08;70.67;102045.69;5029502;28;45641;-65
2023/01/05 09:21:09;;;;;;;;;0.00;0.00;;;;;14.98;70.79;102033.75;5032155;28;45418;-65
2023/01/05 09:23:36;;;;;;;;;3.67;1.67;;;;;15.02;70.84;102043.72;5029075;28;45339;-63
2023/01/05 09:26:04;;;;;;;;;1.00;1.00;;;;;14.96;70.85;102037.25;5031136;28;46361;-61
2023/01/05 09:28:30;;;;;;;;;4.33;2.00;;;;;15.00;70.64;102045.44;5018564;28;45443;-64
2023/01/05 09:30:55;;;;;;;;;2.00;2.00;;;;;14.97;70.67;102036.38;5029290;28;45375;-65
2023/01/05 09:33:21;;;;;;;;;1.00;1.00;;;;;15.02;70.86;102056.25;5023797;28;45546;-62
2023/01/05 09:35:54;;;;;;;;;2.00;0.00;;;;;15.02;71.18;102048.19;5007802;28;46701;-64
2023/01/05 09:38:19;;;;;;;;;2.67;1.00;;;;;15.05;70.98;102048.28;5028199;28;45646;-63
2023/01/05 09:40:46;;;;;;;;;1.00;1.00;;;;;15.06;70.91;102053.72;5021723;28;45706;-64
2023/01/05 09:43:28;;;;;;;;;2.00;2.00;;;;;14.97;70.78;102039.97;5033809;28;45371;-63
2023/01/05 09:45:54;;;;;;;;;6.00;4.67;;;;;15.07;71.23;102060.91;5024001;28;46201;-64
2023/01/05 09:48:21;;;;;;;;;3.00;1.00;;;;;15.11;70.58;102052.06;5025907;28;45241;-62
2023/01/05 09:50:49;;;;;;;;;1.00;1.00;;;;;15.17;70.83;102055.78;5023190;28;45497;-62
2023/01/05 09:53:22;;;;;;;;;3.00;1.67;;;;;15.14;70.90;102053.00;5009230;28;45568;-62
2023/01/05 09:55:48;;;;;;;;;2.00;2.00;;;;;15.19;70.53;102052.25;5023292;28;46562;-63
2023/01/05 09:58:17;;;;;;;;;3.67;2.67;;;;;15.28;70.78;102059.69;5019871;28;45719;-64
2023/01/05 10:01:04;;;;;;;;;3.00;0.00;;;;;15.21;70.18;102039.78;5017664;28;45534;-69
2023/01/05 10:03:31;;;;;;;;;1.33;1.33;;;;;15.28;70.31;102051.63;5031189;28;45396;-62
2023/01/05 10:05:58;;;;;;;;;6.00;4.33;;;;;15.38;70.34;102069.84;5022307;28;46306;-68
2023/01/05 10:08:33;;;;;;;;;4.67;4.67;;;;;15.38;69.83;102048.31;5031920;28;45517;-63
2023/01/05 10:13:55;;;;;;;;;3.00;3.00;;;;;15.50;69.91;102060.28;5022803;28;45677;-61
2023/01/05 10:16:21;;;;;;;;;4.67;3.33;;;;;15.51;70.03;102071.13;5019348;28;45461;-62
2023/01/05 10:18:46;;;;;;;;;8.33;5.00;;;;;15.46;69.50;102059.31;5023186;28;45574;-63
2023/01/05 10:21:29;;;;;;;;;3.67;2.00;;;;;15.35;69.36;102031.16;5032953;28;45438;-62
2023/01/05 10:24:39;;;;;;;;;1.00;1.00;;;;;15.51;69.90;102062.09;5032642;28;45538;-62
2023/01/05 10:27:21;;;;;;;;;4.00;2.33;;;;;15.56;69.87;102069.44;5029048;28;45788;-63
2023/01/05 10:29:52;;;;;;;;;2.33;1.00;;;;;15.45;69.58;102047.59;5027735;28;45550;-69
2023/01/05 10:32:51;;;;;;;;;3.33;3.33;;;;;15.57;69.74;102060.47;5027881;28;45540;-62
2023/01/05 10:35:19;;;;;;;;;1.33;1.33;;;;;15.55;70.03;102056.84;5026198;28;45405;-62
2023/01/05 10:37:50;;;;;;;;;1.67;1.67;;;;;15.49;69.89;102062.06;5007855;28;45454;-64
2023/01/05 10:40:27;;;;;;;;;1.67;1.67;;;;;15.47;70.41;102050.34;5032509;28;45444;-62
2023/01/05 10:43:17;;;;;;;;;4.00;2.00;;;;;15.42;70.33;102060.97;5033754;28;45378;-64
2023/01/05 10:45:42;;;;;;;;;2.00;2.00;;;;;15.20;70.61;102021.78;5030860;28;45558;-60
2023/01/05 10:48:17;;;;;;;;;3.33;3.33;;;;;15.30;71.12;102047.19;5018113;28;47419;-62
2023/01/05 10:50:45;;;;;;;;;4.67;2.67;;;;;15.41;71.29;102072.63;5031076;28;45451;-60
2023/01/05 10:53:24;;;;;;;;;5.33;4.67;;;;;15.44;71.22;102045.78;5031528;28;45474;-61
2023/01/05 10:56:04;;;;;;;;;4.33;2.67;;;;;15.49;71.46;102048.59;5019834;28;45499;-61
2023/01/05 10:58:32;;;;;;;;;5.00;3.67;;;;;15.50;71.49;102036.06;5035841;28;45551;-61
2023/01/05 11:01:02;;;;;;;;;8.67;4.00;;;;;15.54;71.29;102044.25;5020815;28;45464;-60
2023/01/05 11:03:41;;;;;;;;;1.67;1.67;;;;;15.55;71.01;102031.69;5034706;28;45284;-63
2023/01/05 11:06:17;;;;;;;;;3.33;3.33;;;;;15.57;70.96;102038.03;5034504;28;45395;-61
2023/01/05 11:08:43;;;;;;;;;1.67;1.67;;;;;15.61;71.36;102024.69;5035892;28;46330;-61
2023/01/05 11:11:19;;;;;;;;;6.00;4.33;;;;;15.63;71.61;102020.25;5018141;28;45784;-61
2023/01/05 11:13:49;;;;;;;;;1.67;1.67;;;;;15.51;70.92;101997.44;5033345;28;45391;-61
2023/01/05 11:16:21;;;;;;;;;0.67;0.67;;;;;15.64;71.21;102019.38;5033050;28;45407;-61
2023/01/05 11:18:47;;;;;;;;;6.67;6.00;;;;;15.67;71.89;102007.75;5035049;28;45549;-63
2023/01/05 11:21:41;;;;;;;;;6.00;2.33;;;;;15.58;71.88;101996.75;5035092;28;45536;-63
2023/01/05 11:24:34;;;;;;;;;3.33;3.33;;;;;15.65;72.20;101998.72;5035643;28;45570;-59
2023/01/05 11:27:22;;;;;;;;;3.00;1.67;;;;;15.65;71.69;101999.63;5034821;28;45695;-63
2023/01/05 11:30:09;;;;;;;;;2.00;2.00;;;;;15.70;72.29;102004.25;5031178;28;45617;-60
2023/01/05 11:32:34;;;;;;;;;8.00;4.00;;;;;15.40;71.81;101957.69;5033865;28;45419;-62
2023/01/05 11:35:00;;;;;;;;;4.67;3.33;;;;;15.53;71.82;101977.78;5030068;28;45494;-61
2023/01/05 11:37:29;;;;;;;;;5.00;5.00;;;;;15.67;71.81;101996.97;5016521;28;45684;-61
2023/01/05 11:40:00;;;;;;;;;4.33;3.33;;;;;15.55;71.54;101978.72;5017628;28;46804;-62
2023/01/05 11:42:26;;;;;;;;;2.33;2.33;;;;;15.69;71.10;101991.63;5014467;28;45796;-62
2023/01/05 11:44:55;;;;;;;;;6.00;2.00;;;;;15.68;70.93;101995.22;5010574;28;45342;-62
2023/01/05 11:47:36;;;;;;;;;3.00;1.67;;;;;15.32;70.86;101934.13;5022286;28;45606;-61
2023/01/05 11:50:07;;;;;;;;;5.00;4.00;;;;;15.67;71.63;101991.59;5029229;28;45465;-62
2023/01/05 11:52:37;;;;;;;;;2.67;2.67;;;;;15.66;71.14;101996.06;5030215;28;45399;-62
2023/01/05 11:55:26;;;;;;;;;3.00;3.00;;;;;15.66;71.24;101995.19;5033792;28;45525;-62
2023/01/05 11:57:53;;;;;;;;;6.33;5.00;;;;;15.68;71.15;102001.50;5035354;28;45345;-63
2023/01/05 12:00:26;;;;;;;;;3.67;2.67;;;;;15.61;71.14;101973.50;5034552;28;46356;-63
2023/01/05 12:03:10;;;;;;;;;4.67;3.67;;;;;15.64;71.86;101986.13;5017373;28;45749;-62
2023/01/05 12:05:49;;;;;;;;;7.00;4.00;;;;;15.61;72.08;101981.59;5030650;28;45277;-63
2023/01/05 12:08:22;;;;;;;;;2.00;2.00;;;;;15.45;72.48;101950.63;5020768;28;45435;-63
2023/01/05 12:11:06;;;;;;;;;10.00;10.00;;;;;15.61;72.94;101986.97;5026853;28;45376;-63